Flight Track Log - Related Links

Times and Time Zones

All times are in EDT time to prevent confusion due to time zone crossing. See the N875P flight status page for this flight to view local times or setup timezone preferences in your user account.

Time Position Orientation Groundspeed Altitude Reporting Facility
EDT Latitude Longitude Course Direction KTS MPH feet Rate Location/Type
Thu 06:47:14 PM 29.6353 -95.2892 165° South 170 196 400  Level Houston Center
Thu 06:48:10 PM 29.5900 -95.2753 165° South 219 252 2,600 2,118 Climbing Houston Center
Thu 06:49:13 PM 29.5442 -95.2214 134° Southeast 232 267 4,600 1,680 Climbing Houston Center
Thu 06:50:15 PM 29.4817 -95.1658 142° Southeast 279 321 6,100 1,984 Climbing Houston Center
Thu 06:51:17 PM 29.4714 -95.0775 98° East 303 349 8,700 2,226 Climbing Houston Center
Thu 06:52:19 PM 29.5050 -94.9928 65° Northeast 297 342 10,700 1,694 Climbing Houston Center
Thu 06:53:21 PM 29.5478 -94.8769 67° East 331 381 12,200 960 Climbing Houston Center
Thu 06:54:24 PM 29.5828 -94.7647 70° East 371 427 12,700 576 Climbing Houston Center
Thu 06:55:26 PM 29.6219 -94.6483 69° East 387 445 13,400 629 Climbing Houston Center
Thu 06:56:28 PM 29.6614 -94.5275 69° East 401 461 14,000 726 Climbing Houston Center
Thu 06:57:30 PM 29.7025 -94.4028 69° East 412 474 14,900 1,161 Climbing Houston Center
Thu 06:58:32 PM 29.7133 -94.2478 85° East 406 467 16,400 1,210 Climbing Houston Center
Thu 06:59:34 PM 29.6981 -94.1344 99° East 410 472 17,400 1,258 Climbing Houston Center
Thu 07:00:36 PM 29.6867 -93.9789 95° East 410 472 19,000 1,344 Climbing Houston Center
Thu 07:01:39 PM 29.6861 -93.8492 90° East 409 471 20,200 1,104 Climbing Houston Center
Thu 07:02:41 PM 29.6836 -93.7194 91° East 408 470 21,300 1,065 Climbing Houston Center
Thu 07:03:43 PM 29.6828 -93.5861 90° East 418 481 22,400 774 Climbing Houston Center
Thu 07:04:45 PM 29.6814 -93.4200 91° East 435 501 22,900 290 Climbing Houston Center
Thu 07:05:47 PM 29.6811 -93.2789 90° East 446 513 23,000  Climbing Houston Center
Thu 07:06:49 PM 29.7081 -93.1492 77° East 422 486 22,900  Descending Houston Center
Thu 07:07:51 PM 29.7339 -93.0217 77° East 414 476 23,000  Climbing Houston Center
Thu 07:08:54 PM 29.7586 -92.8947 77° East 410 472 22,900 -48 Descending Houston Center
Thu 07:09:56 PM 29.7828 -92.7625 78° East 421 484 22,900  Level Houston Center
Thu 07:10:59 PM 29.8136 -92.6000 78° East 434 499 22,900  Level Houston Center
Thu 07:12:00 PM 29.8417 -92.4581 77° East 448 516 22,900  Level Houston Center
Thu 07:13:02 PM 29.8694 -92.3131 78° East 460 529 22,900 48 Level Houston Center
Thu 07:14:04 PM 29.8961 -92.1669 78° East 463 533 23,000  Climbing Houston Center
Thu 07:15:06 PM 29.9236 -92.0192 78° East 469 540 22,900 -242 Descending Houston Center
Thu 07:16:08 PM 29.9575 -91.8428 77° East 470 541 22,500 -774 Descending Houston Center
Thu 07:17:10 PM 29.9839 -91.6956 78° East 461 531 21,300 -1,584 Descending Houston Center
Thu 07:18:13 PM 30.0086 -91.5528 79° East 458 527 19,200 -2,016 Descending Houston Center
Thu 07:19:15 PM 30.0344 -91.4089 78° East 459 528 17,100 -1,742 Descending Houston Center
Thu 07:20:17 PM 30.0633 -91.2675 77° East 451 519 15,600 -1,339 Descending Houston Center
Thu 07:21:07 PM 30.0817 -91.1506 80° East 375 432 14,600 -968 Descending Houston Center
Thu 07:21:19 PM 30.0839 -91.1489 33° Northeast 385 443 14,600 -1,500 Level Houston Center
Thu 07:22:07 PM 30.1019 -91.0322 80° East 363 418 13,100 -1,742 Descending Houston Center
Thu 07:22:21 PM 30.1075 -91.0117 73° East 368 423 12,800 -1,770 Descending Houston Center
Thu 07:23:08 PM 30.1139 -90.9214 85° East 353 406 11,300 -1,742 Descending Houston Center
Thu 07:23:23 PM 30.1144 -90.9006 88° East 357 411 11,000 -1,800 Descending Houston Center
Thu 07:24:08 PM 30.1047 -90.8133 97° East 326 375 9,500 -1,742 Descending Houston Center
Thu 07:24:25 PM 30.1053 -90.7950 88° East 346 398 9,200 -1,574 Descending Houston Center
Thu 07:25:09 PM 30.0875 -90.7203 105° East 285 328 7,900 -581 Descending Houston Center
Thu 07:25:27 PM 30.1039 -90.6992 48° Northeast 338 389 8,600 -1,967 Climbing Houston Center
Thu 07:26:10 PM 30.0397 -90.6475 145° Southeast 297 342 5,900 -2,227 Descending Houston Center
Thu 07:27:04 PM 30.0456 -90.5586 86° East 299 344 5,000 -470 Descending Houston Center
Thu 07:28:05 PM 30.0597 -90.4692 80° East 279 321 5,000  Level Houston Center
Thu 07:29:06 PM 30.0694 -90.3728 83° East 302 348 5,000  Level Houston Center
Thu 07:30:07 PM 30.0772 -90.2786 85° East 289 333 5,000 -393 Level Houston Center
Thu 07:31:08 PM 30.0889 -90.1869 82° East 284 327 4,200 -1,240 Descending Houston Center
Thu 07:32:08 PM 30.0989 -90.1000 82° East 271 312 2,500 -1,587 Descending Houston Center
Thu 07:33:09 PM 30.0903 -90.0306 98° East 220 253 1,000 -1,475 Descending Houston Center
Thu 07:35:00 PM 30.0424 -90.0283 101° East  Level Estimated
Thu 07:42:00 PM 30.0424 -90.0283 101° East  Level Estimated

Login

Don't have an account? Register now (free) for customized features, flight alerts, and more!